Terminal Aerodrome Forecast
Issued by NWS Columbia, SC

Home | Current Version | Previous Version | Text Only | Print | Product List | Glossary On
Versions: 1 2 3 4 5 6 7 8 9 10 11 12 13 14 15 16 17 18 19 20 21 22 23 24 25 26 27 28 29 30 31 32 33 34 35 36 37 38 39 40 41 42
234
FTAK31 PAJN 202337
TAFAGS
TAF
PAGS 202337Z 2100/2124 13004KT P6SM -SHRA SCT020 BKN040 OVC060
      TEMPO 2100/2104 SCT012 BKN017 OVC035
     FM210900 12007KT P6SM -SHRA SCT015 BKN025 OVC040
     FM211500 35009KT P6SM VCSH SCT025 OVC040
     FM211800 34007KT P6SM BKN060
      AMD LTD TO CLD VIS AND WIND=

USA.gov is the U.S. government's official web portal to all federal, state and local government web resources and services.